Time;durP1;ratioP1;P1;durP2;ratioP2;P2;SDS_P1;SDS_P2;PMS_P1;PMS_P2;Temp;Humidity;BMP_temperature;BMP_pressure;BME280_temperature;BME280_humidity;BME280_pressure;Samples;Min_cycle;Max_cycle;Signal;HPM_P1;HPM_P2
2023/08/01 00:01:34;;;;;;;3.00;2.47;;;21.70;78.50;;;;;;4987378;28;20205;-67
2023/08/01 00:04:00;;;;;;;3.20;2.13;;;21.70;78.50;;;;;;4983932;28;20185;-68
2023/08/01 00:06:26;;;;;;;3.33;2.30;;;21.70;78.40;;;;;;4983741;28;20193;-69
2023/08/01 00:08:52;;;;;;;2.70;2.45;;;21.70;78.40;;;;;;4994419;28;20234;-68
2023/08/01 00:11:18;;;;;;;2.50;2.30;;;21.70;78.50;;;;;;5012853;28;20271;-67
2023/08/01 00:13:43;;;;;;;3.25;2.10;;;21.70;78.50;;;;;;4994565;28;20326;-68
2023/08/01 00:16:09;;;;;;;2.83;2.30;;;21.70;78.50;;;;;;4988566;28;20176;-69
2023/08/01 00:18:35;;;;;;;2.50;2.30;;;21.70;78.50;;;;;;4995272;28;20212;-68
2023/08/01 00:21:02;;;;;;;2.35;2.15;;;21.70;78.50;;;;;;4987273;28;20184;-68
2023/08/01 00:23:28;;;;;;;2.67;2.17;;;21.70;78.50;;;;;;4987996;28;20216;-68
2023/08/01 00:25:54;;;;;;;2.80;2.53;;;21.70;78.50;;;;;;4969502;28;20282;-68
2023/08/01 00:28:22;;;;;;;2.85;2.40;;;21.80;78.60;;;;;;4999991;28;20212;-68
2023/08/01 00:30:48;;;;;;;2.33;2.13;;;21.70;78.50;;;;;;4965260;28;20659;-69
2023/08/01 00:33:14;;;;;;;2.65;2.45;;;21.70;78.50;;;;;;4978770;28;20215;-68
2023/08/01 00:35:40;;;;;;;2.78;2.47;;;21.70;78.50;;;;;;5000116;28;20184;-68
2023/08/01 00:38:06;;;;;;;2.55;2.20;;;21.70;78.50;;;;;;4998888;28;20216;-69
2023/08/01 00:40:33;;;;;;;2.10;1.90;;;21.70;78.50;;;;;;4982931;28;20196;-68
2023/08/01 00:43:00;;;;;;;2.33;2.13;;;21.70;78.50;;;;;;4994062;28;20188;-69
2023/08/01 00:45:30;;;;;;;2.75;2.47;;;21.70;78.50;;;;;;4988446;28;20652;-68
2023/08/01 00:47:56;;;;;;;1.88;1.73;;;21.70;78.50;;;;;;4993864;28;20212;-69
2023/08/01 00:50:23;;;;;;;2.63;2.40;;;21.70;78.50;;;;;;4980811;28;20207;-69
2023/08/01 00:52:52;;;;;;;2.75;2.20;;;21.70;78.40;;;;;;4991270;28;20212;-68
2023/08/01 00:55:19;;;;;;;3.58;2.17;;;21.70;78.50;;;;;;4993671;28;20666;-68
2023/08/01 00:57:45;;;;;;;2.38;2.17;;;21.70;78.40;;;;;;4975132;28;20263;-68
2023/08/01 01:00:12;;;;;;;2.38;1.88;;;21.70;78.50;;;;;;4967596;28;20268;-68
2023/08/01 01:02:38;;;;;;;2.88;2.35;;;21.80;78.60;;;;;;5007367;28;20190;-69
2023/08/01 01:05:05;;;;;;;2.55;2.30;;;21.70;78.40;;;;;;4970403;28;20192;-68
2023/08/01 01:07:31;;;;;;;2.30;1.80;;;21.70;78.40;;;;;;4992422;28;20259;-68
2023/08/01 01:09:58;;;;;;;2.45;2.10;;;21.70;78.50;;;;;;5002881;28;20189;-68
2023/08/01 01:12:24;;;;;;;2.60;2.13;;;21.70;78.50;;;;;;5010822;28;20254;-68
2023/08/01 01:14:50;;;;;;;2.85;2.20;;;21.70;78.40;;;;;;4994205;28;20196;-68
2023/08/01 01:17:15;;;;;;;2.80;2.53;;;21.70;78.40;;;;;;4972021;28;20209;-69
2023/08/01 01:19:41;;;;;;;2.42;2.22;;;21.70;78.40;;;;;;4991151;28;20283;-67
2023/08/01 01:22:10;;;;;;;1.85;1.63;;;21.70;78.40;;;;;;4986475;28;20598;-68
2023/08/01 01:24:39;;;;;;;1.90;1.80;;;21.70;78.40;;;;;;4986811;28;20189;-68
2023/08/01 01:27:07;;;;;;;3.05;2.30;;;21.70;78.40;;;;;;5006622;28;20208;-68
2023/08/01 01:29:34;;;;;;;3.53;2.40;;;21.70;78.40;;;;;;4965917;28;20233;-68
2023/08/01 01:32:01;;;;;;;3.03;2.45;;;21.70;78.40;;;;;;4975674;28;20579;-68
2023/08/01 01:34:30;;;;;;;2.15;2.03;;;21.70;78.40;;;;;;4974750;28;20192;-68
2023/08/01 01:36:55;;;;;;;2.30;2.10;;;21.70;78.40;;;;;;4990745;28;20217;-68
2023/08/01 01:39:21;;;;;;;2.67;2.47;;;21.70;78.40;;;;;;4974905;28;20204;-68
2023/08/01 01:41:47;;;;;;;2.72;2.08;;;21.70;78.40;;;;;;5007867;28;20185;-68
2023/08/01 01:44:13;;;;;;;2.38;2.15;;;21.70;78.40;;;;;;4975360;28;20231;-68
2023/08/01 01:46:38;;;;;;;2.08;1.95;;;21.70;78.40;;;;;;4974614;28;20216;-68
2023/08/01 01:49:04;;;;;;;2.55;1.98;;;21.70;78.40;;;;;;4974236;28;20201;-67
2023/08/01 01:51:31;;;;;;;2.75;2.45;;;21.70;78.40;;;;;;4999197;28;20231;-68
2023/08/01 01:53:56;;;;;;;2.03;1.75;;;21.70;78.40;;;;;;4975899;28;20177;-68
2023/08/01 01:56:22;;;;;;;2.50;2.28;;;21.70;78.40;;;;;;4982697;28;20199;-68
2023/08/01 01:58:48;;;;;;;2.45;2.00;;;21.70;78.40;;;;;;4982464;28;20189;-68
2023/08/01 02:01:14;;;;;;;2.50;2.30;;;21.70;78.40;;;;;;4978258;28;20198;-69
2023/08/01 02:03:40;;;;;;;2.80;2.22;;;21.70;78.40;;;;;;5001979;28;20195;-70
2023/08/01 02:06:06;;;;;;;2.35;2.15;;;21.70;78.40;;;;;;5007095;28;20193;-69
2023/08/01 02:08:32;;;;;;;2.40;2.20;;;21.70;78.40;;;;;;4972561;28;20220;-70
2023/08/01 02:10:58;;;;;;;2.83;2.63;;;21.70;78.40;;;;;;4968251;28;20192;-67
2023/08/01 02:13:26;;;;;;;2.28;2.03;;;21.70;78.40;;;;;;4987492;28;20216;-68
2023/08/01 02:15:52;;;;;;;2.40;2.20;;;21.70;78.40;;;;;;4993375;28;20192;-67
2023/08/01 02:18:18;;;;;;;2.90;2.45;;;21.70;78.40;;;;;;4973611;28;20200;-68
2023/08/01 02:20:43;;;;;;;3.15;2.40;;;21.70;78.40;;;;;;4990838;28;20188;-68
2023/08/01 02:23:09;;;;;;;3.70;2.05;;;21.70;78.40;;;;;;5006944;28;20184;-68
2023/08/01 02:25:42;;;;;;;2.67;2.30;;;21.70;78.40;;;;;;4985768;28;20601;-69
2023/08/01 02:28:08;;;;;;;1.95;1.83;;;21.70;78.40;;;;;;4975662;28;20220;-68
2023/08/01 02:30:36;;;;;;;2.22;2.03;;;21.70;78.40;;;;;;4985879;28;20732;-68
2023/08/01 02:33:02;;;;;;;2.50;2.30;;;21.70;78.40;;;;;;5005552;28;20216;-68
2023/08/01 02:35:29;;;;;;;2.40;2.20;;;21.70;78.40;;;;;;4991999;28;20268;-69
2023/08/01 02:37:55;;;;;;;2.47;2.28;;;21.70;78.50;;;;;;4986436;28;20295;-68
2023/08/01 02:40:22;;;;;;;2.50;2.30;;;21.60;78.40;;;;;;4984584;28;20251;-69
2023/08/01 02:42:48;;;;;;;2.75;1.85;;;21.70;78.50;;;;;;5005477;28;20188;-68
2023/08/01 02:45:14;;;;;;;2.60;2.35;;;21.70;78.50;;;;;;4994087;28;20189;-68
2023/08/01 02:47:40;;;;;;;2.63;2.15;;;21.60;78.40;;;;;;4984270;28;20303;-68
2023/08/01 02:50:07;;;;;;;2.60;2.40;;;21.70;78.50;;;;;;4988772;28;20200;-68
2023/08/01 02:52:32;;;;;;;2.08;1.83;;;21.70;78.60;;;;;;4975263;28;20224;-69
2023/08/01 02:54:58;;;;;;;2.55;2.20;;;21.70;78.60;;;;;;4994865;28;20176;-68
2023/08/01 02:57:24;;;;;;;2.17;1.98;;;21.70;78.60;;;;;;5008594;28;20212;-68
2023/08/01 02:59:50;;;;;;;2.75;2.40;;;21.70;78.70;;;;;;4985564;28;20198;-68
2023/08/01 03:02:16;;;;;;;2.42;2.13;;;21.60;78.50;;;;;;5014228;28;20227;-69
2023/08/01 03:04:41;;;;;;;2.53;2.33;;;21.70;78.70;;;;;;5013160;28;20188;-68
2023/08/01 03:07:07;;;;;;;2.50;2.13;;;21.70;78.70;;;;;;5002451;28;20215;-68
2023/08/01 03:09:33;;;;;;;3.22;2.40;;;21.60;78.50;;;;;;4995955;28;20203;-69
2023/08/01 03:11:59;;;;;;;3.10;2.15;;;21.70;78.70;;;;;;4988795;28;20263;-69
2023/08/01 03:14:24;;;;;;;2.50;2.30;;;21.60;78.60;;;;;;4989853;28;20188;-69
2023/08/01 03:16:50;;;;;;;2.65;2.45;;;21.70;78.70;;;;;;4980415;28;20263;-68
2023/08/01 03:19:16;;;;;;;2.70;2.50;;;21.60;78.60;;;;;;5004458;28;20195;-68
2023/08/01 03:21:42;;;;;;;2.72;2.40;;;21.70;78.70;;;;;;4989877;28;20185;-68
2023/08/01 03:24:08;;;;;;;2.83;2.53;;;21.70;78.70;;;;;;4987004;28;20585;-68
2023/08/01 03:26:37;;;;;;;2.17;1.92;;;21.70;78.70;;;;;;4972076;28;20260;-68
2023/08/01 03:29:05;;;;;;;2.47;2.28;;;21.60;78.60;;;;;;4988062;28;20225;-68
2023/08/01 03:31:32;;;;;;;2.40;2.17;;;21.60;78.60;;;;;;4996409;28;20180;-68
2023/08/01 03:34:00;;;;;;;2.75;2.05;;;21.70;78.70;;;;;;4996004;28;20215;-68
2023/08/01 03:36:26;;;;;;;2.45;2.25;;;21.60;78.60;;;;;;4976634;28;20185;-68
2023/08/01 03:38:52;;;;;;;2.35;2.15;;;21.60;78.60;;;;;;4991876;28;20192;-69
2023/08/01 03:41:18;;;;;;;2.20;2.00;;;21.60;78.60;;;;;;5001247;28;20189;-68
2023/08/01 03:43:43;;;;;;;3.28;2.05;;;21.60;78.60;;;;;;4992741;28;20181;-68
2023/08/01 03:46:09;;;;;;;3.10;2.45;;;21.60;78.60;;;;;;4992287;28;20188;-68
2023/08/01 03:48:35;;;;;;;2.67;2.33;;;21.70;78.70;;;;;;5005974;28;20216;-68
2023/08/01 03:51:03;;;;;;;3.40;2.45;;;21.60;78.60;;;;;;5003507;28;20234;-68
2023/08/01 03:53:28;;;;;;;1.98;1.88;;;21.70;78.70;;;;;;4984479;28;20213;-69
2023/08/01 03:55:56;;;;;;;2.20;2.00;;;21.60;78.60;;;;;;4984376;28;20280;-68
2023/08/01 03:58:22;;;;;;;2.55;2.35;;;21.70;78.70;;;;;;5008396;28;20267;-68
2023/08/01 04:00:47;;;;;;;2.50;2.30;;;21.60;78.60;;;;;;4999446;28;20651;-68
2023/08/01 04:03:13;;;;;;;2.42;2.22;;;21.60;78.60;;;;;;4977061;28;20188;-69
2023/08/01 04:05:39;;;;;;;2.65;2.00;;;21.60;78.60;;;;;;4982057;28;20184;-68
2023/08/01 04:08:04;;;;;;;2.60;1.95;;;21.60;78.60;;;;;;4987093;28;20209;-68
2023/08/01 04:10:30;;;;;;;3.03;2.45;;;21.60;78.60;;;;;;4987611;28;20565;-68
2023/08/01 04:12:56;;;;;;;2.38;2.17;;;21.60;79.40;;;;;;5003712;28;20664;-68
2023/08/01 04:15:21;;;;;;;2.50;2.30;;;21.60;78.60;;;;;;4995024;28;20254;-69
2023/08/01 04:17:47;;;;;;;2.25;2.05;;;21.70;78.70;;;;;;4979096;28;20208;-68
2023/08/01 04:20:13;;;;;;;2.25;2.05;;;21.60;78.60;;;;;;5011306;28;20196;-69
2023/08/01 04:22:39;;;;;;;2.30;2.10;;;21.60;78.60;;;;;;4973670;28;20188;-68
2023/08/01 04:25:05;;;;;;;2.38;2.17;;;21.60;78.60;;;;;;4991888;28;20219;-68
2023/08/01 04:27:31;;;;;;;2.33;2.10;;;21.60;78.60;;;;;;4999896;28;20212;-68
2023/08/01 04:29:56;;;;;;;2.35;2.03;;;21.60;78.60;;;;;;4983892;28;20187;-68
2023/08/01 04:32:22;;;;;;;2.35;2.13;;;21.60;78.60;;;;;;4994833;28;20212;-68
2023/08/01 04:34:48;;;;;;;2.65;2.28;;;21.60;78.60;;;;;;4980695;28;20189;-68
2023/08/01 04:37:13;;;;;;;2.08;1.95;;;21.60;78.60;;;;;;5009861;28;20208;-68
2023/08/01 04:39:39;;;;;;;2.58;2.28;;;21.60;78.60;;;;;;5011370;28;20200;-68
2023/08/01 04:42:06;;;;;;;2.13;1.92;;;21.60;78.50;;;;;;4978360;28;20185;-71
2023/08/01 04:44:32;;;;;;;2.30;2.10;;;21.60;78.50;;;;;;4995874;28;20184;-68
2023/08/01 04:46:58;;;;;;;2.30;2.10;;;21.60;78.50;;;;;;5001180;28;20291;-68
2023/08/01 04:49:27;;;;;;;2.33;2.08;;;21.60;78.50;;;;;;4967005;28;20275;-68
2023/08/01 04:51:52;;;;;;;2.67;2.47;;;21.60;78.50;;;;;;4998654;28;20207;-69
2023/08/01 04:54:18;;;;;;;2.63;2.42;;;21.60;78.40;;;;;;4967955;28;20331;-68
2023/08/01 04:56:44;;;;;;;2.47;2.28;;;21.60;78.40;;;;;;4991192;28;20204;-68
2023/08/01 04:59:09;;;;;;;2.58;2.10;;;21.60;78.40;;;;;;4980949;28;20238;-68
2023/08/01 05:01:35;;;;;;;2.42;2.22;;;21.60;78.40;;;;;;4981947;28;20200;-68
2023/08/01 05:04:01;;;;;;;2.47;2.28;;;21.60;79.20;;;;;;4994726;28;20259;-69
2023/08/01 05:06:27;;;;;;;2.67;2.40;;;21.60;78.30;;;;;;4982863;28;20189;-68
2023/08/01 05:08:54;;;;;;;2.53;2.28;;;21.60;78.30;;;;;;4990003;28;20184;-68
2023/08/01 05:11:20;;;;;;;2.60;2.40;;;21.60;78.40;;;;;;4994425;28;20211;-69
2023/08/01 05:13:45;;;;;;;2.40;2.20;;;21.60;78.30;;;;;;4986098;28;20298;-69
2023/08/01 05:16:11;;;;;;;2.15;1.95;;;21.60;78.30;;;;;;4977354;28;20322;-70
2023/08/01 05:18:37;;;;;;;2.38;2.17;;;21.60;78.30;;;;;;4981795;28;20211;-68
2023/08/01 05:21:03;;;;;;;2.25;2.05;;;21.60;78.20;;;;;;4982927;28;20191;-68
2023/08/01 05:23:29;;;;;;;2.97;2.20;;;21.60;78.20;;;;;;4999314;28;20193;-68
2023/08/01 05:25:55;;;;;;;2.35;2.15;;;21.60;78.10;;;;;;5005915;28;20199;-69
2023/08/01 05:28:20;;;;;;;2.22;2.03;;;21.60;78.10;;;;;;5009543;28;20212;-68
2023/08/01 05:30:47;;;;;;;2.40;2.20;;;21.60;78.10;;;;;;4988855;28;20185;-69
2023/08/01 05:33:13;;;;;;;2.53;2.33;;;21.60;78.10;;;;;;4998890;28;20224;-68
2023/08/01 05:35:38;;;;;;;2.30;2.10;;;21.60;78.10;;;;;;4995452;28;20180;-68
2023/08/01 05:38:04;;;;;;;2.40;2.20;;;21.60;78.00;;;;;;5002211;28;20227;-68
2023/08/01 05:40:30;;;;;;;2.42;2.10;;;21.60;78.10;;;;;;5010471;28;20223;-69
2023/08/01 05:42:56;;;;;;;2.45;2.25;;;21.60;78.10;;;;;;5002346;28;20211;-70
2023/08/01 05:45:21;;;;;;;2.25;2.05;;;21.60;78.00;;;;;;5010630;28;20192;-68
2023/08/01 05:47:47;;;;;;;2.35;2.15;;;21.60;78.00;;;;;;4964399;28;20215;-68
2023/08/01 05:50:13;;;;;;;2.53;2.25;;;21.60;78.00;;;;;;4999709;28;20215;-68
2023/08/01 05:52:39;;;;;;;3.40;2.10;;;21.60;78.00;;;;;;4989914;28;20213;-68
2023/08/01 05:55:06;;;;;;;2.40;2.20;;;21.60;77.90;;;;;;4999241;28;20191;-67
2023/08/01 05:57:32;;;;;;;2.47;2.28;;;21.60;77.90;;;;;;4982122;28;20231;-68
2023/08/01 05:59:58;;;;;;;2.78;2.10;;;21.60;77.80;;;;;;5002235;28;20185;-68
2023/08/01 06:02:23;;;;;;;2.90;2.08;;;21.60;77.90;;;;;;4976480;28;20204;-65
2023/08/01 06:04:49;;;;;;;2.95;2.67;;;21.60;77.90;;;;;;4976216;28;20184;-68
2023/08/01 06:07:15;;;;;;;2.80;2.50;;;21.60;77.60;;;;;;4980311;28;20231;-67
2023/08/01 06:09:41;;;;;;;2.50;2.05;;;21.60;77.60;;;;;;5007242;28;20194;-66
2023/08/01 06:12:07;;;;;;;2.80;2.42;;;21.60;77.60;;;;;;4974117;28;20205;-66
2023/08/01 06:14:32;;;;;;;2.20;2.00;;;21.60;77.60;;;;;;4994454;28;20185;-66
2023/08/01 06:17:05;;;;;;;2.75;2.30;;;21.60;77.40;;;;;;5000693;28;20264;-68
2023/08/01 06:19:31;;;;;;;2.40;2.20;;;21.60;77.50;;;;;;4997401;28;20188;-67
2023/08/01 06:21:57;;;;;;;2.45;2.25;;;21.60;77.40;;;;;;4990070;28;20187;-67
2023/08/01 06:24:23;;;;;;;2.50;2.30;;;21.60;77.40;;;;;;5002417;28;20181;-68
2023/08/01 06:26:48;;;;;;;2.40;2.20;;;21.60;77.50;;;;;;4985802;28;20205;-68
2023/08/01 06:29:14;;;;;;;2.33;2.05;;;21.60;77.40;;;;;;4994082;28;20228;-69
2023/08/01 06:31:40;;;;;;;3.00;2.20;;;21.60;77.40;;;;;;4970565;28;20699;-68
2023/08/01 06:34:05;;;;;;;4.55;2.53;;;21.60;77.40;;;;;;4990171;28;20195;-68
2023/08/01 06:36:32;;;;;;;3.85;2.80;;;21.60;77.40;;;;;;4996595;28;20184;-69
2023/08/01 06:38:58;;;;;;;2.53;2.33;;;21.60;77.30;;;;;;4989246;28;20199;-68
2023/08/01 06:41:23;;;;;;;2.97;2.72;;;21.60;77.20;;;;;;4983970;28;20184;-68
2023/08/01 06:43:51;;;;;;;2.65;2.45;;;21.60;77.10;;;;;;5005706;28;20180;-69
2023/08/01 06:46:17;;;;;;;3.35;2.80;;;21.60;77.00;;;;;;4993312;28;20192;-68
2023/08/01 06:48:42;;;;;;;2.63;2.42;;;21.60;77.00;;;;;;4998394;28;20195;-69
2023/08/01 06:51:08;;;;;;;2.83;2.40;;;21.60;77.00;;;;;;5013369;28;20184;-68
2023/08/01 06:53:34;;;;;;;2.75;2.55;;;21.60;77.00;;;;;;4969988;28;20205;-69
2023/08/01 06:55:59;;;;;;;2.80;2.60;;;21.60;76.90;;;;;;4992178;28;20569;-69
2023/08/01 06:58:25;;;;;;;2.60;2.40;;;21.60;76.70;;;;;;5011446;28;20220;-68
2023/08/01 07:00:51;;;;;;;3.03;2.70;;;21.60;76.70;;;;;;4993772;28;20185;-68
2023/08/01 07:03:17;;;;;;;3.63;2.55;;;21.60;76.60;;;;;;5009745;28;20195;-68
2023/08/01 07:05:43;;;;;;;3.00;2.70;;;21.60;76.70;;;;;;4996913;28;20188;-68
2023/08/01 07:08:08;;;;;;;3.75;2.90;;;21.60;76.70;;;;;;4996503;28;20569;-69
2023/08/01 07:10:35;;;;;;;3.03;2.28;;;21.60;76.70;;;;;;5001975;28;20180;-69
2023/08/01 07:13:04;;;;;;;2.88;2.58;;;21.70;76.70;;;;;;4977297;28;20216;-68
2023/08/01 07:15:31;;;;;;;3.38;3.05;;;21.60;76.60;;;;;;4967928;28;20189;-68
2023/08/01 07:17:57;;;;;;;3.08;2.75;;;21.60;77.60;;;;;;5006787;28;20212;-66
2023/08/01 07:20:23;;;;;;;3.42;3.13;;;21.60;77.00;;;;;;4995296;28;20195;-67
2023/08/01 07:22:48;;;;;;;3.72;2.85;;;21.60;76.90;;;;;;4998901;28;20271;-65
2023/08/01 07:25:15;;;;;;;3.10;2.65;;;21.60;76.80;;;;;;4996277;28;20267;-69
2023/08/01 07:27:42;;;;;;;3.45;3.15;;;21.60;76.80;;;;;;5000540;28;20262;-68
2023/08/01 07:30:10;;;;;;;2.80;2.53;;;21.60;76.70;;;;;;5000873;28;20200;-68
2023/08/01 07:32:37;;;;;;;3.00;2.63;;;21.70;76.60;;;;;;4985061;28;20220;-68
2023/08/01 07:35:05;;;;;;;3.20;2.80;;;21.70;76.60;;;;;;4968863;28;20179;-69
2023/08/01 07:37:33;;;;;;;3.03;2.53;;;21.70;76.50;;;;;;5010953;28;20212;-69
2023/08/01 07:39:59;;;;;;;3.15;2.88;;;21.70;76.50;;;;;;4974180;28;20193;-68
2023/08/01 07:42:24;;;;;;;4.60;3.05;;;21.60;76.50;;;;;;5005732;28;20189;-69
2023/08/01 07:44:50;;;;;;;3.30;3.00;;;21.60;76.50;;;;;;4984905;28;20189;-68
2023/08/01 07:47:16;;;;;;;2.90;2.60;;;21.60;76.50;;;;;;4992164;28;20211;-68
2023/08/01 07:49:42;;;;;;;3.45;2.40;;;21.70;76.70;;;;;;4992578;28;20271;-68
2023/08/01 07:52:07;;;;;;;3.08;2.78;;;21.70;76.60;;;;;;5007729;28;20215;-69
2023/08/01 07:54:33;;;;;;;3.30;3.00;;;21.70;76.70;;;;;;4991137;28;20188;-69
2023/08/01 07:56:59;;;;;;;3.88;2.90;;;21.60;76.60;;;;;;4981805;28;20215;-68
2023/08/01 07:59:24;;;;;;;2.83;2.58;;;21.70;77.50;;;;;;4968533;28;20683;-68
2023/08/01 08:01:51;;;;;;;3.00;2.70;;;21.70;76.80;;;;;;4987742;28;20185;-69
2023/08/01 08:04:16;;;;;;;2.78;2.58;;;21.70;76.70;;;;;;4971468;28;20185;-69
2023/08/01 08:06:42;;;;;;;3.22;2.78;;;21.70;76.70;;;;;;4976148;28;20215;-68
2023/08/01 08:09:08;;;;;;;2.70;2.50;;;21.70;76.70;;;;;;4999047;28;20561;-69
2023/08/01 08:11:34;;;;;;;3.15;2.42;;;21.60;76.50;;;;;;4962975;28;20220;-70
2023/08/01 08:14:00;;;;;;;2.85;2.47;;;21.70;76.50;;;;;;4995732;28;20188;-68
2023/08/01 08:16:25;;;;;;;3.88;3.00;;;21.70;76.60;;;;;;5018925;28;20196;-68
2023/08/01 08:18:51;;;;;;;3.33;2.90;;;21.70;76.60;;;;;;4975955;28;20188;-68
2023/08/01 08:21:17;;;;;;;3.15;2.85;;;21.70;76.60;;;;;;4984263;28;20185;-68
2023/08/01 08:23:43;;;;;;;3.13;2.80;;;21.70;76.60;;;;;;4983679;28;20185;-68
2023/08/01 08:26:08;;;;;;;2.72;2.53;;;21.70;77.30;;;;;;4990020;28;20296;-69
2023/08/01 08:28:34;;;;;;;2.92;2.72;;;21.70;76.50;;;;;;4993459;28;20208;-70
2023/08/01 08:31:02;;;;;;;2.53;2.33;;;21.70;76.60;;;;;;4996295;28;20185;-68
2023/08/01 08:33:29;;;;;;;3.47;3.05;;;21.70;76.60;;;;;;4992537;28;20220;-68
2023/08/01 08:35:55;;;;;;;3.10;2.80;;;21.70;76.70;;;;;;5005375;28;20234;-69
2023/08/01 08:38:20;;;;;;;3.38;3.08;;;21.70;76.70;;;;;;5004640;28;20220;-69
2023/08/01 08:41:21;;;;;;;3.20;2.90;;;21.60;76.70;;;;;;4978616;28;20195;-69
2023/08/01 08:43:48;;;;;;;3.03;2.72;;;21.70;76.70;;;;;;4983542;28;20189;-68
2023/08/01 08:46:16;;;;;;;3.42;2.85;;;21.70;76.80;;;;;;4982519;28;20192;-68
2023/08/01 08:48:45;;;;;;;3.13;2.80;;;21.70;76.80;;;;;;4974800;28;20207;-68
2023/08/01 08:51:12;;;;;;;3.20;2.90;;;21.70;76.90;;;;;;5004574;28;20196;-68
2023/08/01 08:53:40;;;;;;;3.33;2.80;;;21.70;76.90;;;;;;4986494;28;20219;-68
2023/08/01 08:56:09;;;;;;;3.60;3.30;;;21.70;77.00;;;;;;4969540;28;20185;-68
2023/08/01 08:58:40;;;;;;;2.95;2.72;;;21.70;77.20;;;;;;4983179;28;20209;-68
2023/08/01 09:01:07;;;;;;;3.05;2.72;;;21.70;77.10;;;;;;4983228;28;20200;-69
2023/08/01 09:03:33;;;;;;;3.17;2.53;;;21.60;77.00;;;;;;5000701;28;20184;-68
2023/08/01 09:06:16;;;;;;;3.22;2.60;;;21.70;77.90;;;;;;4999770;28;20185;-69
2023/08/01 09:08:55;;;;;;;2.78;2.58;;;21.70;77.20;;;;;;4985345;28;20231;-69
2023/08/01 09:11:21;;;;;;;2.88;2.60;;;21.70;77.10;;;;;;4970909;28;20188;-69
2023/08/01 09:13:50;;;;;;;2.80;2.60;;;21.70;77.20;;;;;;4977970;28;20659;-69
2023/08/01 09:16:19;;;;;;;3.45;2.63;;;21.70;77.20;;;;;;5003202;28;20199;-68
2023/08/01 09:18:52;;;;;;;3.35;2.60;;;21.60;77.20;;;;;;4977380;28;20185;-68
2023/08/01 09:21:22;;;;;;;3.08;2.80;;;21.60;77.20;;;;;;4986589;28;20234;-68
2023/08/01 09:23:48;;;;;;;3.60;3.20;;;21.60;77.20;;;;;;4992458;28;20231;-69
2023/08/01 09:26:19;;;;;;;2.53;2.33;;;21.70;77.30;;;;;;4997330;28;20603;-68
2023/08/01 09:28:58;;;;;;;3.03;2.75;;;21.60;77.20;;;;;;4991824;28;20192;-68
2023/08/01 09:31:33;;;;;;;2.97;2.67;;;21.60;77.20;;;;;;4978887;28;20189;-69
2023/08/01 09:34:00;;;;;;;2.80;2.58;;;21.70;77.30;;;;;;4979187;28;20269;-68
2023/08/01 09:36:26;;;;;;;3.65;2.60;;;21.70;77.30;;;;;;4993746;28;20663;-69
2023/08/01 09:38:58;;;;;;;3.03;2.58;;;21.70;77.40;;;;;;4958037;28;21083;-68
2023/08/01 09:41:24;;;;;;;2.80;2.60;;;21.70;77.40;;;;;;4999144;28;20212;-68
2023/08/01 09:43:50;;;;;;;2.53;2.33;;;21.70;77.50;;;;;;4982709;28;20216;-68
2023/08/01 09:46:16;;;;;;;2.90;2.70;;;21.70;77.50;;;;;;5005205;28;20278;-68
2023/08/01 09:48:43;;;;;;;2.65;2.30;;;21.70;77.50;;;;;;4984111;28;20212;-69
2023/08/01 09:51:13;;;;;;;3.60;2.92;;;21.70;77.50;;;;;;4982966;28;20189;-68
2023/08/01 09:53:52;;;;;;;2.58;2.38;;;21.70;77.50;;;;;;4984281;28;20212;-68
2023/08/01 09:56:24;;;;;;;3.00;2.75;;;21.70;77.50;;;;;;5011268;28;20187;-68
2023/08/01 09:58:53;;;;;;;2.90;2.60;;;21.70;77.50;;;;;;4991343;28;20208;-70
2023/08/01 10:01:21;;;;;;;3.00;2.70;;;21.70;77.50;;;;;;4997604;28;20187;-69
2023/08/01 10:03:50;;;;;;;2.33;2.13;;;21.70;77.60;;;;;;4974605;28;20188;-69
2023/08/01 10:06:28;;;;;;;2.78;2.58;;;21.70;77.60;;;;;;4990563;28;20235;-69
2023/08/01 10:08:53;;;;;;;2.75;2.53;;;21.70;77.70;;;;;;4990552;28;20187;-69
2023/08/01 10:11:22;;;;;;;2.88;2.55;;;21.70;77.70;;;;;;4966394;28;20181;-68
2023/08/01 10:13:48;;;;;;;2.90;2.70;;;21.70;77.70;;;;;;5010427;28;20291;-69
2023/08/01 10:16:15;;;;;;;2.70;2.50;;;21.70;77.70;;;;;;4985951;28;20192;-68
2023/08/01 10:18:43;;;;;;;3.13;2.35;;;21.70;77.70;;;;;;4984330;28;20227;-69
2023/08/01 10:21:14;;;;;;;2.53;2.33;;;21.70;77.90;;;;;;5005073;28;20188;-70
2023/08/01 10:23:41;;;;;;;2.97;2.60;;;21.70;77.90;;;;;;4991636;28;20193;-68
2023/08/01 10:26:09;;;;;;;2.72;2.53;;;21.70;77.90;;;;;;4975620;28;20181;-69
2023/08/01 10:28:38;;;;;;;2.60;2.20;;;21.70;77.90;;;;;;4990721;28;20710;-69
2023/08/01 10:31:10;;;;;;;2.63;2.30;;;21.70;77.90;;;;;;4993671;28;20200;-68
2023/08/01 10:33:38;;;;;;;2.50;2.30;;;21.70;77.80;;;;;;4977562;28;20766;-68
2023/08/01 10:36:22;;;;;;;2.85;2.58;;;21.60;77.80;;;;;;4989318;28;20185;-69
2023/08/01 10:38:55;;;;;;;2.97;2.50;;;21.60;77.90;;;;;;4999535;28;20184;-68
2023/08/01 10:41:30;;;;;;;2.90;2.70;;;21.70;78.00;;;;;;4995187;28;20243;-68
2023/08/01 10:44:15;;;;;;;2.65;2.38;;;21.60;77.90;;;;;;4998345;28;20184;-68
2023/08/01 10:46:55;;;;;;;2.75;2.55;;;21.60;78.00;;;;;;4993556;28;20212;-68
2023/08/01 10:49:44;;;;;;;2.67;2.47;;;21.60;78.00;;;;;;4979670;28;20278;-68
2023/08/01 10:52:23;;;;;;;2.92;2.65;;;21.60;78.00;;;;;;4991678;28;20307;-68
2023/08/01 10:54:58;;;;;;;2.70;2.50;;;21.60;78.00;;;;;;4996785;28;20274;-69
2023/08/01 10:57:25;;;;;;;3.00;2.75;;;21.60;78.00;;;;;;4988619;28;20289;-69
2023/08/01 10:59:51;;;;;;;2.08;1.88;;;21.60;78.00;;;;;;4978503;28;20173;-69
2023/08/01 11:02:23;;;;;;;2.80;2.50;;;21.60;78.00;;;;;;4995960;28;20211;-68
2023/08/01 11:05:01;;;;;;;2.38;2.17;;;21.60;78.00;;;;;;5009581;28;20326;-69
2023/08/01 11:07:27;;;;;;;2.40;2.13;;;21.60;78.10;;;;;;4980966;28;20220;-68
2023/08/01 11:10:10;;;;;;;2.60;2.40;;;21.60;78.10;;;;;;4977352;28;20196;-68
2023/08/01 11:12:41;;;;;;;2.28;2.08;;;21.70;78.30;;;;;;5006228;28;20224;-69
2023/08/01 11:15:10;;;;;;;2.60;2.40;;;21.60;78.20;;;;;;5009756;28;20200;-69
2023/08/01 11:17:41;;;;;;;2.03;1.88;;;21.60;78.20;;;;;;4996422;28;20215;-69
2023/08/01 11:20:11;;;;;;;2.33;2.10;;;21.60;78.20;;;;;;4996729;28;20188;-68
2023/08/01 11:22:53;;;;;;;2.63;2.20;;;21.60;78.10;;;;;;4996286;28;20246;-68
2023/08/01 11:25:32;;;;;;;2.38;2.17;;;21.70;78.20;;;;;;4995665;28;20189;-69
2023/08/01 11:28:09;;;;;;;3.17;2.53;;;21.70;79.00;;;;;;4993190;28;20259;-68
2023/08/01 11:30:36;;;;;;;2.58;2.10;;;21.70;78.20;;;;;;5009412;28;20214;-69
2023/08/01 11:33:12;;;;;;;2.28;2.08;;;21.70;78.20;;;;;;4979822;28;20212;-69
2023/08/01 11:35:39;;;;;;;2.75;2.28;;;21.70;78.20;;;;;;5005587;28;20192;-69
2023/08/01 11:38:06;;;;;;;2.85;2.20;;;21.70;78.30;;;;;;4992667;28;20287;-68
2023/08/01 11:40:32;;;;;;;2.70;2.00;;;21.70;78.40;;;;;;4994256;28;20207;-68
2023/08/01 11:42:58;;;;;;;2.42;2.22;;;21.80;78.60;;;;;;4994751;28;20613;-68
2023/08/01 11:45:25;;;;;;;2.67;2.45;;;21.70;78.50;;;;;;4996046;28;20246;-69
2023/08/01 11:47:51;;;;;;;2.00;1.90;;;21.70;78.50;;;;;;5004951;28;20721;-68
2023/08/01 11:50:25;;;;;;;2.08;1.88;;;21.80;78.80;;;;;;4995902;28;20195;-68
2023/08/01 11:52:51;;;;;;;2.13;1.92;;;21.80;78.60;;;;;;4994356;28;20268;-68
2023/08/01 11:55:23;;;;;;;2.80;2.13;;;21.80;78.80;;;;;;4989536;28;20199;-68
2023/08/01 11:57:58;;;;;;;2.10;1.90;;;21.80;78.80;;;;;;4977926;28;20216;-69
2023/08/01 12:00:27;;;;;;;2.20;2.00;;;21.80;78.70;;;;;;4993113;28;20188;-69
2023/08/01 12:03:13;;;;;;;2.25;1.67;;;21.80;78.90;;;;;;5002134;28;20193;-69
2023/08/01 12:05:45;;;;;;;2.10;1.90;;;21.80;79.00;;;;;;4987854;28;20192;-69
2023/08/01 12:08:15;;;;;;;2.58;2.20;;;21.80;78.80;;;;;;4984451;28;20213;-70
2023/08/01 12:10:45;;;;;;;2.15;1.95;;;21.80;79.00;;;;;;5008566;28;20191;-69
2023/08/01 12:13:22;;;;;;;2.10;1.90;;;21.80;78.90;;;;;;4991345;28;20236;-69
2023/08/01 12:15:51;;;;;;;2.25;2.03;;;21.80;78.80;;;;;;5001100;28;20288;-69
2023/08/01 12:18:25;;;;;;;2.28;2.00;;;21.80;79.00;;;;;;4974786;28;20233;-68
2023/08/01 12:20:51;;;;;;;1.58;1.48;;;21.80;79.10;;;;;;5001672;28;20646;-68
2023/08/01 12:23:18;;;;;;;1.92;1.83;;;21.80;79.10;;;;;;4985355;28;20200;-68
2023/08/01 12:25:44;;;;;;;2.08;1.88;;;21.80;79.00;;;;;;4976159;28;20567;-69
2023/08/01 12:28:09;;;;;;;2.15;1.95;;;21.80;79.00;;;;;;4987240;28;20291;-69
2023/08/01 12:30:35;;;;;;;2.00;1.80;;;21.80;79.10;;;;;;4979697;28;20280;-68
2023/08/01 12:33:02;;;;;;;1.85;1.75;;;21.80;79.30;;;;;;4985931;28;20231;-68
2023/08/01 12:35:27;;;;;;;1.77;1.67;;;21.70;79.00;;;;;;4987351;28;20196;-69
2023/08/01 12:37:53;;;;;;;2.00;1.80;;;21.70;78.80;;;;;;4977167;28;20204;-68
2023/08/01 12:40:20;;;;;;;2.05;1.90;;;21.70;79.00;;;;;;4986444;28;20200;-68
2023/08/01 12:42:47;;;;;;;1.95;1.80;;;21.80;79.30;;;;;;4967520;28;20551;-67
2023/08/01 12:45:13;;;;;;;2.08;1.67;;;21.80;79.10;;;;;;4977065;28;20203;-68
2023/08/01 12:47:39;;;;;;;1.88;1.60;;;21.70;78.90;;;;;;4987418;28;20213;-68
2023/08/01 12:50:06;;;;;;;1.55;1.45;;;21.80;78.90;;;;;;5005579;28;20208;-68